sensor_id;sensor_type;location;lat;lon;timestamp;temperature;humidity
72936;DHT22;61085;48.804;9.228;2023-02-15T00:01:51;2.60;99.90
72936;DHT22;61085;48.804;9.228;2023-02-15T00:04:20;2.60;99.90
72936;DHT22;61085;48.804;9.228;2023-02-15T00:06:46;2.70;99.90
72936;DHT22;61085;48.804;9.228;2023-02-15T00:09:12;2.70;99.90
72936;DHT22;61085;48.804;9.228;2023-02-15T00:11:38;2.60;99.90
72936;DHT22;61085;48.804;9.228;2023-02-15T00:14:21;2.60;99.90
72936;DHT22;61085;48.804;9.228;2023-02-15T00:16:49;2.60;99.90
72936;DHT22;61085;48.804;9.228;2023-02-15T00:19:17;2.50;99.90
72936;DHT22;61085;48.804;9.228;2023-02-15T00:21:43;2.50;99.90
72936;DHT22;61085;48.804;9.228;2023-02-15T00:24:11;2.30;99.90
72936;DHT22;61085;48.804;9.228;2023-02-15T00:26:39;2.30;99.90
72936;DHT22;61085;48.804;9.228;2023-02-15T00:29:05;2.20;99.90
72936;DHT22;61085;48.804;9.228;2023-02-15T00:31:32;2.20;99.90
72936;DHT22;61085;48.804;9.228;2023-02-15T00:34:16;2.20;99.90
72936;DHT22;61085;48.804;9.228;2023-02-15T00:36:43;2.20;99.90
72936;DHT22;61085;48.804;9.228;2023-02-15T00:39:09;2.30;99.90
72936;DHT22;61085;48.804;9.228;2023-02-15T00:41:35;2.30;99.90
72936;DHT22;61085;48.804;9.228;2023-02-15T00:44:01;2.20;99.90
72936;DHT22;61085;48.804;9.228;2023-02-15T00:46:27;2.10;99.90
72936;DHT22;61085;48.804;9.228;2023-02-15T00:48:53;2.10;99.90
72936;DHT22;61085;48.804;9.228;2023-02-15T00:51:19;2.20;99.90
72936;DHT22;61085;48.804;9.228;2023-02-15T00:53:46;2.10;99.90
72936;DHT22;61085;48.804;9.228;2023-02-15T00:56:11;2.20;99.90
72936;DHT22;61085;48.804;9.228;2023-02-15T00:58:37;2.20;99.90
72936;DHT22;61085;48.804;9.228;2023-02-15T01:01:11;2.10;99.90
72936;DHT22;61085;48.804;9.228;2023-02-15T01:03:37;2.10;99.90
72936;DHT22;61085;48.804;9.228;2023-02-15T01:08:30;1.90;99.90
72936;DHT22;61085;48.804;9.228;2023-02-15T01:10:56;1.90;99.90
72936;DHT22;61085;48.804;9.228;2023-02-15T01:13:22;2.00;99.90
72936;DHT22;61085;48.804;9.228;2023-02-15T01:15:54;1.90;99.90
72936;DHT22;61085;48.804;9.228;2023-02-15T01:18:21;1.90;99.90
72936;DHT22;61085;48.804;9.228;2023-02-15T01:20:46;1.90;99.90
72936;DHT22;61085;48.804;9.228;2023-02-15T01:23:13;2.00;99.90
72936;DHT22;61085;48.804;9.228;2023-02-15T01:25:38;2.00;99.90
72936;DHT22;61085;48.804;9.228;2023-02-15T01:28:04;1.90;99.90
72936;DHT22;61085;48.804;9.228;2023-02-15T01:30:30;1.80;99.90
72936;DHT22;61085;48.804;9.228;2023-02-15T01:32:55;1.90;99.90
72936;DHT22;61085;48.804;9.228;2023-02-15T01:35:21;1.90;99.90
72936;DHT22;61085;48.804;9.228;2023-02-15T01:37:47;1.80;99.90
72936;DHT22;61085;48.804;9.228;2023-02-15T01:40:14;1.90;99.90
72936;DHT22;61085;48.804;9.228;2023-02-15T01:42:40;1.80;99.90
72936;DHT22;61085;48.804;9.228;2023-02-15T01:47:45;1.90;99.90
72936;DHT22;61085;48.804;9.228;2023-02-15T01:50:13;1.90;99.90
72936;DHT22;61085;48.804;9.228;2023-02-15T01:52:51;2.00;99.90
72936;DHT22;61085;48.804;9.228;2023-02-15T01:55:18;2.00;99.90
72936;DHT22;61085;48.804;9.228;2023-02-15T01:57:45;2.00;99.90
72936;DHT22;61085;48.804;9.228;2023-02-15T02:00:12;1.90;99.90
72936;DHT22;61085;48.804;9.228;2023-02-15T02:02:40;1.90;99.90
72936;DHT22;61085;48.804;9.228;2023-02-15T02:05:07;1.90;99.90
72936;DHT22;61085;48.804;9.228;2023-02-15T02:07:36;1.80;99.90
72936;DHT22;61085;48.804;9.228;2023-02-15T02:10:04;2.10;99.90
72936;DHT22;61085;48.804;9.228;2023-02-15T02:12:31;1.80;99.90
72936;DHT22;61085;48.804;9.228;2023-02-15T02:14:57;1.80;99.90
72936;DHT22;61085;48.804;9.228;2023-02-15T02:20:22;1.60;99.90
72936;DHT22;61085;48.804;9.228;2023-02-15T02:36:57;1.40;99.90
72936;DHT22;61085;48.804;9.228;2023-02-15T02:42:12;1.40;99.90
72936;DHT22;61085;48.804;9.228;2023-02-15T02:44:48;1.40;99.90
72936;DHT22;61085;48.804;9.228;2023-02-15T02:47:30;1.30;99.90
72936;DHT22;61085;48.804;9.228;2023-02-15T02:50:04;1.20;99.90
72936;DHT22;61085;48.804;9.228;2023-02-15T02:55:40;1.20;99.90
72936;DHT22;61085;48.804;9.228;2023-02-15T02:58:27;1.20;99.90
72936;DHT22;61085;48.804;9.228;2023-02-15T03:00:57;1.20;99.90
72936;DHT22;61085;48.804;9.228;2023-02-15T03:06:18;1.30;99.90
72936;DHT22;61085;48.804;9.228;2023-02-15T03:08:48;1.30;99.90
72936;DHT22;61085;48.804;9.228;2023-02-15T03:11:16;1.20;99.90
72936;DHT22;61085;48.804;9.228;2023-02-15T03:13:43;1.20;99.90
72936;DHT22;61085;48.804;9.228;2023-02-15T03:16:10;1.10;99.90
72936;DHT22;61085;48.804;9.228;2023-02-15T03:19:13;1.10;99.90
72936;DHT22;61085;48.804;9.228;2023-02-15T03:22:04;1.10;99.90
72936;DHT22;61085;48.804;9.228;2023-02-15T03:25:02;1.10;99.90
72936;DHT22;61085;48.804;9.228;2023-02-15T03:27:38;1.20;99.90
72936;DHT22;61085;48.804;9.228;2023-02-15T03:30:06;1.20;99.90
72936;DHT22;61085;48.804;9.228;2023-02-15T03:32:34;1.10;99.90
72936;DHT22;61085;48.804;9.228;2023-02-15T03:35:02;1.10;99.90
72936;DHT22;61085;48.804;9.228;2023-02-15T03:38:03;1.00;99.90
72936;DHT22;61085;48.804;9.228;2023-02-15T03:40:41;1.00;99.90
72936;DHT22;61085;48.804;9.228;2023-02-15T03:49:06;1.00;99.90
72936;DHT22;61085;48.804;9.228;2023-02-15T03:51:36;0.90;99.90
72936;DHT22;61085;48.804;9.228;2023-02-15T03:54:30;0.80;99.90
72936;DHT22;61085;48.804;9.228;2023-02-15T03:57:28;0.60;99.90
72936;DHT22;61085;48.804;9.228;2023-02-15T04:00:15;0.40;99.90
72936;DHT22;61085;48.804;9.228;2023-02-15T04:05:26;0.20;99.90
72936;DHT22;61085;48.804;9.228;2023-02-15T04:07:55;0.10;99.90
72936;DHT22;61085;48.804;9.228;2023-02-15T04:10:20;0.20;99.90
72936;DHT22;61085;48.804;9.228;2023-02-15T04:13:04;0.30;99.90
72936;DHT22;61085;48.804;9.228;2023-02-15T04:15:30;0.30;99.90
72936;DHT22;61085;48.804;9.228;2023-02-15T04:18:14;0.10;99.90
72936;DHT22;61085;48.804;9.228;2023-02-15T04:20:44;0.00;99.90
72936;DHT22;61085;48.804;9.228;2023-02-15T04:23:29;0.10;99.90
72936;DHT22;61085;48.804;9.228;2023-02-15T04:26:14;0.20;99.90
72936;DHT22;61085;48.804;9.228;2023-02-15T04:28:39;0.20;99.90
72936;DHT22;61085;48.804;9.228;2023-02-15T04:31:05;0.30;99.90
72936;DHT22;61085;48.804;9.228;2023-02-15T04:33:30;0.20;99.90
72936;DHT22;61085;48.804;9.228;2023-02-15T04:35:56;0.20;99.90
72936;DHT22;61085;48.804;9.228;2023-02-15T04:38:22;0.20;99.90
72936;DHT22;61085;48.804;9.228;2023-02-15T04:40:51;0.10;99.90
72936;DHT22;61085;48.804;9.228;2023-02-15T04:43:18;0.10;99.90
72936;DHT22;61085;48.804;9.228;2023-02-15T04:45:48;0.10;99.90
72936;DHT22;61085;48.804;9.228;2023-02-15T04:48:14;-0.10;99.90
72936;DHT22;61085;48.804;9.228;2023-02-15T04:50:40;0.00;99.90
72936;DHT22;61085;48.804;9.228;2023-02-15T04:53:05;-0.40;99.90
72936;DHT22;61085;48.804;9.228;2023-02-15T04:55:31;-0.50;99.90
72936;DHT22;61085;48.804;9.228;2023-02-15T04:57:57;-0.40;99.90
72936;DHT22;61085;48.804;9.228;2023-02-15T05:00:22;-0.60;99.90
72936;DHT22;61085;48.804;9.228;2023-02-15T05:02:48;-0.60;99.90
72936;DHT22;61085;48.804;9.228;2023-02-15T05:05:13;-0.50;99.90
72936;DHT22;61085;48.804;9.228;2023-02-15T05:07:40;-0.50;99.90
72936;DHT22;61085;48.804;9.228;2023-02-15T05:10:06;-0.70;99.90
72936;DHT22;61085;48.804;9.228;2023-02-15T05:12:32;-0.70;99.90
72936;DHT22;61085;48.804;9.228;2023-02-15T05:14:57;-0.50;99.90
72936;DHT22;61085;48.804;9.228;2023-02-15T05:17:23;-0.40;99.90
72936;DHT22;61085;48.804;9.228;2023-02-15T05:19:49;-0.20;99.90
72936;DHT22;61085;48.804;9.228;2023-02-15T05:22:14;-0.30;99.90
72936;DHT22;61085;48.804;9.228;2023-02-15T05:24:40;-0.30;99.90
72936;DHT22;61085;48.804;9.228;2023-02-15T05:27:24;-0.30;99.90
72936;DHT22;61085;48.804;9.228;2023-02-15T05:30:09;-0.20;99.90
72936;DHT22;61085;48.804;9.228;2023-02-15T05:32:37;-0.30;99.90
72936;DHT22;61085;48.804;9.228;2023-02-15T05:35:05;-0.50;99.90
72936;DHT22;61085;48.804;9.228;2023-02-15T05:37:30;-0.60;99.90
72936;DHT22;61085;48.804;9.228;2023-02-15T05:39:56;-0.90;99.90
72936;DHT22;61085;48.804;9.228;2023-02-15T05:42:22;-1.10;99.90
72936;DHT22;61085;48.804;9.228;2023-02-15T05:44:47;-1.20;99.90
72936;DHT22;61085;48.804;9.228;2023-02-15T05:47:13;-1.10;99.90
72936;DHT22;61085;48.804;9.228;2023-02-15T05:49:38;-1.20;99.90
72936;DHT22;61085;48.804;9.228;2023-02-15T05:52:05;-1.00;99.90
72936;DHT22;61085;48.804;9.228;2023-02-15T05:54:30;-0.90;99.90
72936;DHT22;61085;48.804;9.228;2023-02-15T05:56:56;-0.90;99.90
72936;DHT22;61085;48.804;9.228;2023-02-15T05:59:22;-1.20;99.90
72936;DHT22;61085;48.804;9.228;2023-02-15T06:01:48;-1.10;99.90
72936;DHT22;61085;48.804;9.228;2023-02-15T06:04:13;-1.00;99.90
72936;DHT22;61085;48.804;9.228;2023-02-15T06:06:39;-1.00;99.90
72936;DHT22;61085;48.804;9.228;2023-02-15T06:09:05;-0.90;99.90
72936;DHT22;61085;48.804;9.228;2023-02-15T06:11:30;-0.90;99.90
72936;DHT22;61085;48.804;9.228;2023-02-15T06:13:56;-0.80;99.90
72936;DHT22;61085;48.804;9.228;2023-02-15T06:16:22;-0.80;99.90
72936;DHT22;61085;48.804;9.228;2023-02-15T06:18:48;-0.60;99.90
72936;DHT22;61085;48.804;9.228;2023-02-15T06:21:13;-0.50;99.90
72936;DHT22;61085;48.804;9.228;2023-02-15T06:23:39;-0.70;99.90
72936;DHT22;61085;48.804;9.228;2023-02-15T06:26:04;-0.50;99.90
72936;DHT22;61085;48.804;9.228;2023-02-15T06:28:30;-0.40;99.90
72936;DHT22;61085;48.804;9.228;2023-02-15T06:30:56;-0.20;99.90
72936;DHT22;61085;48.804;9.228;2023-02-15T06:33:22;-0.10;99.90
72936;DHT22;61085;48.804;9.228;2023-02-15T06:35:48;-0.20;99.90
72936;DHT22;61085;48.804;9.228;2023-02-15T06:38:13;-0.30;99.90
72936;DHT22;61085;48.804;9.228;2023-02-15T06:40:39;-0.40;99.90
72936;DHT22;61085;48.804;9.228;2023-02-15T06:43:04;-0.70;99.90
72936;DHT22;61085;48.804;9.228;2023-02-15T06:45:30;-0.70;99.90
72936;DHT22;61085;48.804;9.228;2023-02-15T06:47:56;-0.70;99.90
72936;DHT22;61085;48.804;9.228;2023-02-15T06:50:21;-0.90;99.90
72936;DHT22;61085;48.804;9.228;2023-02-15T06:52:47;-1.20;99.90
72936;DHT22;61085;48.804;9.228;2023-02-15T06:55:13;-1.30;99.90
72936;DHT22;61085;48.804;9.228;2023-02-15T06:57:38;-1.40;99.90
72936;DHT22;61085;48.804;9.228;2023-02-15T07:00:05;-1.40;99.90
72936;DHT22;61085;48.804;9.228;2023-02-15T07:02:32;-1.40;99.90
72936;DHT22;61085;48.804;9.228;2023-02-15T07:04:58;-1.20;99.90
72936;DHT22;61085;48.804;9.228;2023-02-15T07:07:24;-1.10;99.90
72936;DHT22;61085;48.804;9.228;2023-02-15T07:09:49;-0.90;99.90
72936;DHT22;61085;48.804;9.228;2023-02-15T07:12:15;-0.70;99.90
72936;DHT22;61085;48.804;9.228;2023-02-15T07:14:59;-0.50;99.90
72936;DHT22;61085;48.804;9.228;2023-02-15T07:17:25;-0.10;99.90
72936;DHT22;61085;48.804;9.228;2023-02-15T07:19:54;0.10;99.90
72936;DHT22;61085;48.804;9.228;2023-02-15T07:22:20;0.20;99.90
72936;DHT22;61085;48.804;9.228;2023-02-15T07:24:45;0.00;99.90
72936;DHT22;61085;48.804;9.228;2023-02-15T07:27:11;0.00;99.90
72936;DHT22;61085;48.804;9.228;2023-02-15T07:29:36;-0.20;99.90
72936;DHT22;61085;48.804;9.228;2023-02-15T07:32:02;-0.50;99.90
72936;DHT22;61085;48.804;9.228;2023-02-15T07:34:28;-0.30;99.90
72936;DHT22;61085;48.804;9.228;2023-02-15T07:36:53;-0.20;99.90
72936;DHT22;61085;48.804;9.228;2023-02-15T07:39:19;0.00;99.90
72936;DHT22;61085;48.804;9.228;2023-02-15T07:41:45;0.30;99.90
72936;DHT22;61085;48.804;9.228;2023-02-15T07:44:14;0.60;99.90
72936;DHT22;61085;48.804;9.228;2023-02-15T07:46:40;0.70;99.90
72936;DHT22;61085;48.804;9.228;2023-02-15T07:49:05;1.00;99.90
72936;DHT22;61085;48.804;9.228;2023-02-15T07:51:31;1.20;99.90
72936;DHT22;61085;48.804;9.228;2023-02-15T07:53:56;1.40;99.90
72936;DHT22;61085;48.804;9.228;2023-02-15T07:56:22;1.60;99.90
72936;DHT22;61085;48.804;9.228;2023-02-15T07:58:48;1.80;99.90
72936;DHT22;61085;48.804;9.228;2023-02-15T08:03:43;2.10;99.90
72936;DHT22;61085;48.804;9.228;2023-02-15T08:06:09;2.40;99.90
72936;DHT22;61085;48.804;9.228;2023-02-15T08:08:37;2.60;99.90
72936;DHT22;61085;48.804;9.228;2023-02-15T08:19:26;3.10;99.90
72936;DHT22;61085;48.804;9.228;2023-02-15T08:24:26;2.50;99.90
72936;DHT22;61085;48.804;9.228;2023-02-15T08:26:53;2.30;99.90
72936;DHT22;61085;48.804;9.228;2023-02-15T08:29:21;2.10;99.90
72936;DHT22;61085;48.804;9.228;2023-02-15T08:31:53;1.60;99.90
72936;DHT22;61085;48.804;9.228;2023-02-15T08:34:20;1.30;99.90
72936;DHT22;61085;48.804;9.228;2023-02-15T08:36:46;1.20;99.90
72936;DHT22;61085;48.804;9.228;2023-02-15T08:39:13;1.20;99.90
72936;DHT22;61085;48.804;9.228;2023-02-15T08:41:42;1.30;99.90
72936;DHT22;61085;48.804;9.228;2023-02-15T08:44:08;0.90;99.90
72936;DHT22;61085;48.804;9.228;2023-02-15T08:46:37;1.20;99.90
72936;DHT22;61085;48.804;9.228;2023-02-15T08:49:04;1.20;99.90
72936;DHT22;61085;48.804;9.228;2023-02-15T08:51:32;1.20;99.90
72936;DHT22;61085;48.804;9.228;2023-02-15T08:54:00;1.10;99.90
72936;DHT22;61085;48.804;9.228;2023-02-15T08:56:29;1.30;99.90
72936;DHT22;61085;48.804;9.228;2023-02-15T08:58:55;1.30;99.90
72936;DHT22;61085;48.804;9.228;2023-02-15T09:01:26;1.40;99.90
72936;DHT22;61085;48.804;9.228;2023-02-15T09:03:56;1.60;99.90
72936;DHT22;61085;48.804;9.228;2023-02-15T09:06:23;1.50;99.90
72936;DHT22;61085;48.804;9.228;2023-02-15T09:08:49;0.90;99.90
72936;DHT22;61085;48.804;9.228;2023-02-15T09:13:48;0.80;99.90
72936;DHT22;61085;48.804;9.228;2023-02-15T09:16:14;1.20;99.90
72936;DHT22;61085;48.804;9.228;2023-02-15T09:18:42;1.50;99.90
72936;DHT22;61085;48.804;9.228;2023-02-15T09:21:11;1.50;99.90
72936;DHT22;61085;48.804;9.228;2023-02-15T09:23:40;1.80;99.90
72936;DHT22;61085;48.804;9.228;2023-02-15T09:26:09;2.10;99.90
72936;DHT22;61085;48.804;9.228;2023-02-15T09:28:35;2.50;99.90
72936;DHT22;61085;48.804;9.228;2023-02-15T09:31:24;2.70;99.90
72936;DHT22;61085;48.804;9.228;2023-02-15T09:33:50;2.60;99.90
72936;DHT22;61085;48.804;9.228;2023-02-15T09:38:45;2.40;99.90
72936;DHT22;61085;48.804;9.228;2023-02-15T09:42:04;2.70;99.90
72936;DHT22;61085;48.804;9.228;2023-02-15T10:06:29;3.30;99.90
72936;DHT22;61085;48.804;9.228;2023-02-15T10:28:06;3.40;99.90
72936;DHT22;61085;48.804;9.228;2023-02-15T10:30:51;3.80;99.90
72936;DHT22;61085;48.804;9.228;2023-02-15T10:35:53;3.60;99.90
72936;DHT22;61085;48.804;9.228;2023-02-15T10:38:45;3.80;99.90
72936;DHT22;61085;48.804;9.228;2023-02-15T10:41:39;3.60;99.90
72936;DHT22;61085;48.804;9.228;2023-02-15T10:55:14;4.80;99.90
72936;DHT22;61085;48.804;9.228;2023-02-15T10:58:05;4.70;99.90
72936;DHT22;61085;48.804;9.228;2023-02-15T11:06:13;4.80;99.90
72936;DHT22;61085;48.804;9.228;2023-02-15T11:08:47;4.80;99.90
72936;DHT22;61085;48.804;9.228;2023-02-15T11:11:21;4.90;99.90
72936;DHT22;61085;48.804;9.228;2023-02-15T11:13:51;5.00;99.90
72936;DHT22;61085;48.804;9.228;2023-02-15T11:16:24;4.70;99.90
72936;DHT22;61085;48.804;9.228;2023-02-15T11:19:00;4.80;99.90
72936;DHT22;61085;48.804;9.228;2023-02-15T11:21:32;5.10;99.90
72936;DHT22;61085;48.804;9.228;2023-02-15T11:24:00;5.30;99.90
72936;DHT22;61085;48.804;9.228;2023-02-15T11:26:37;5.10;99.90
72936;DHT22;61085;48.804;9.228;2023-02-15T11:37:05;5.60;99.90
72936;DHT22;61085;48.804;9.228;2023-02-15T11:39:33;5.70;99.90
72936;DHT22;61085;48.804;9.228;2023-02-15T11:42:04;5.80;99.90
72936;DHT22;61085;48.804;9.228;2023-02-15T11:44:39;5.60;99.90
72936;DHT22;61085;48.804;9.228;2023-02-15T11:47:11;5.80;99.90
72936;DHT22;61085;48.804;9.228;2023-02-15T11:49:37;6.30;99.90
72936;DHT22;61085;48.804;9.228;2023-02-15T11:52:12;6.10;99.90
72936;DHT22;61085;48.804;9.228;2023-02-15T11:54:42;5.70;99.90
72936;DHT22;61085;48.804;9.228;2023-02-15T11:59:56;5.70;99.90
72936;DHT22;61085;48.804;9.228;2023-02-15T12:02:23;5.70;99.90
72936;DHT22;61085;48.804;9.228;2023-02-15T12:05:06;5.90;99.90
72936;DHT22;61085;48.804;9.228;2023-02-15T12:07:45;6.00;99.90
72936;DHT22;61085;48.804;9.228;2023-02-15T12:12:43;6.30;99.90
72936;DHT22;61085;48.804;9.228;2023-02-15T12:15:11;6.40;99.90
72936;DHT22;61085;48.804;9.228;2023-02-15T12:17:48;6.60;99.90
72936;DHT22;61085;48.804;9.228;2023-02-15T12:22:49;6.90;99.90
72936;DHT22;61085;48.804;9.228;2023-02-15T12:25:37;7.00;99.90
72936;DHT22;61085;48.804;9.228;2023-02-15T12:28:21;7.10;99.90
72936;DHT22;61085;48.804;9.228;2023-02-15T12:30:47;7.30;99.90
72936;DHT22;61085;48.804;9.228;2023-02-15T12:35:42;7.30;99.90
72936;DHT22;61085;48.804;9.228;2023-02-15T12:40:35;7.60;99.90
72936;DHT22;61085;48.804;9.228;2023-02-15T12:43:01;7.70;99.90
72936;DHT22;61085;48.804;9.228;2023-02-15T12:45:35;7.70;99.90
72936;DHT22;61085;48.804;9.228;2023-02-15T12:50:42;7.80;99.90
72936;DHT22;61085;48.804;9.228;2023-02-15T12:53:20;8.00;99.90
72936;DHT22;61085;48.804;9.228;2023-02-15T12:56:05;7.90;99.90
72936;DHT22;61085;48.804;9.228;2023-02-15T12:58:41;8.20;99.90
72936;DHT22;61085;48.804;9.228;2023-02-15T13:01:17;8.30;99.90
72936;DHT22;61085;48.804;9.228;2023-02-15T13:06:20;8.20;99.90
72936;DHT22;61085;48.804;9.228;2023-02-15T13:08:49;8.40;99.90
72936;DHT22;61085;48.804;9.228;2023-02-15T13:11:23;8.50;99.90
72936;DHT22;61085;48.804;9.228;2023-02-15T13:13:55;8.30;99.90
72936;DHT22;61085;48.804;9.228;2023-02-15T13:16:31;8.30;99.90
72936;DHT22;61085;48.804;9.228;2023-02-15T13:19:00;8.10;99.90
72936;DHT22;61085;48.804;9.228;2023-02-15T13:21:32;8.10;99.90
72936;DHT22;61085;48.804;9.228;2023-02-15T13:24:04;8.30;99.90
72936;DHT22;61085;48.804;9.228;2023-02-15T13:26:32;8.30;99.90
72936;DHT22;61085;48.804;9.228;2023-02-15T13:29:33;8.30;99.90
72936;DHT22;61085;48.804;9.228;2023-02-15T13:32:22;8.30;99.90
72936;DHT22;61085;48.804;9.228;2023-02-15T13:34:53;8.40;99.90
72936;DHT22;61085;48.804;9.228;2023-02-15T13:43:05;8.50;99.90
72936;DHT22;61085;48.804;9.228;2023-02-15T13:46:00;8.80;99.90
72936;DHT22;61085;48.804;9.228;2023-02-15T13:58:29;8.80;99.90
72936;DHT22;61085;48.804;9.228;2023-02-15T14:00:35;8.90;99.90
72936;DHT22;61085;48.804;9.228;2023-02-15T14:09:18;9.10;99.90
72936;DHT22;61085;48.804;9.228;2023-02-15T14:17:42;9.20;99.90
72936;DHT22;61085;48.804;9.228;2023-02-15T14:23:18;9.30;99.90
72936;DHT22;61085;48.804;9.228;2023-02-15T14:25:57;9.40;99.90
72936;DHT22;61085;48.804;9.228;2023-02-15T14:28:33;9.50;99.20
72936;DHT22;61085;48.804;9.228;2023-02-15T14:31:00;9.50;98.70
72936;DHT22;61085;48.804;9.228;2023-02-15T14:33:36;9.60;97.70
72936;DHT22;61085;48.804;9.228;2023-02-15T14:36:05;9.50;97.70
72936;DHT22;61085;48.804;9.228;2023-02-15T14:41:37;9.60;97.80
72936;DHT22;61085;48.804;9.228;2023-02-15T14:49:40;9.50;97.50
72936;DHT22;61085;48.804;9.228;2023-02-15T14:52:07;9.50;97.40
72936;DHT22;61085;48.804;9.228;2023-02-15T15:02:16;9.70;96.80
72936;DHT22;61085;48.804;9.228;2023-02-15T15:04:44;9.60;96.70
72936;DHT22;61085;48.804;9.228;2023-02-15T15:15:31;10.00;96.20
72936;DHT22;61085;48.804;9.228;2023-02-15T15:18:07;9.90;95.90
72936;DHT22;61085;48.804;9.228;2023-02-15T15:20:50;9.90;95.80
72936;DHT22;61085;48.804;9.228;2023-02-15T15:29:15;9.80;95.40
72936;DHT22;61085;48.804;9.228;2023-02-15T15:50:42;9.40;98.20
72936;DHT22;61085;48.804;9.228;2023-02-15T15:53:20;9.40;97.70
72936;DHT22;61085;48.804;9.228;2023-02-15T15:55:47;9.40;98.40
72936;DHT22;61085;48.804;9.228;2023-02-15T15:58:17;9.40;98.20
72936;DHT22;61085;48.804;9.228;2023-02-15T16:05:46;9.30;97.90
72936;DHT22;61085;48.804;9.228;2023-02-15T16:08:13;9.20;97.90
72936;DHT22;61085;48.804;9.228;2023-02-15T16:10:50;9.20;97.90
72936;DHT22;61085;48.804;9.228;2023-02-15T16:13:16;9.20;97.80
72936;DHT22;61085;48.804;9.228;2023-02-15T16:15:50;9.20;98.30
72936;DHT22;61085;48.804;9.228;2023-02-15T16:18:20;9.10;98.70
72936;DHT22;61085;48.804;9.228;2023-02-15T16:20:54;9.00;99.40
72936;DHT22;61085;48.804;9.228;2023-02-15T16:28:24;8.90;99.90
72936;DHT22;61085;48.804;9.228;2023-02-15T16:31:14;8.80;99.90
72936;DHT22;61085;48.804;9.228;2023-02-15T16:33:41;8.70;99.90
72936;DHT22;61085;48.804;9.228;2023-02-15T16:36:12;8.70;99.90
72936;DHT22;61085;48.804;9.228;2023-02-15T16:41:12;8.60;99.90
72936;DHT22;61085;48.804;9.228;2023-02-15T16:43:41;8.60;99.90
72936;DHT22;61085;48.804;9.228;2023-02-15T16:46:14;8.50;99.90
72936;DHT22;61085;48.804;9.228;2023-02-15T16:48:43;8.50;99.90
72936;DHT22;61085;48.804;9.228;2023-02-15T16:51:20;8.50;99.90
72936;DHT22;61085;48.804;9.228;2023-02-15T16:53:47;8.40;99.90
72936;DHT22;61085;48.804;9.228;2023-02-15T16:56:17;8.50;99.90
72936;DHT22;61085;48.804;9.228;2023-02-15T16:58:50;8.50;99.90
72936;DHT22;61085;48.804;9.228;2023-02-15T17:01:16;8.40;99.90
72936;DHT22;61085;48.804;9.228;2023-02-15T17:03:48;8.40;99.90
72936;DHT22;61085;48.804;9.228;2023-02-15T17:08:46;8.20;99.90
72936;DHT22;61085;48.804;9.228;2023-02-15T17:11:18;8.10;99.90
72936;DHT22;61085;48.804;9.228;2023-02-15T17:16:31;7.90;99.90
72936;DHT22;61085;48.804;9.228;2023-02-15T17:19:00;7.90;99.90
72936;DHT22;61085;48.804;9.228;2023-02-15T17:21:41;7.80;99.90
72936;DHT22;61085;48.804;9.228;2023-02-15T17:24:16;7.80;99.90
72936;DHT22;61085;48.804;9.228;2023-02-15T17:26:43;7.60;99.90
72936;DHT22;61085;48.804;9.228;2023-02-15T17:31:48;7.50;99.90
72936;DHT22;61085;48.804;9.228;2023-02-15T17:42:40;7.30;99.90
72936;DHT22;61085;48.804;9.228;2023-02-15T17:45:06;7.30;99.90
72936;DHT22;61085;48.804;9.228;2023-02-15T17:47:31;7.20;99.90
72936;DHT22;61085;48.804;9.228;2023-02-15T17:49:57;7.10;99.90
72936;DHT22;61085;48.804;9.228;2023-02-15T17:52:27;7.10;99.90
72936;DHT22;61085;48.804;9.228;2023-02-15T17:54:53;7.10;99.90
72936;DHT22;61085;48.804;9.228;2023-02-15T17:57:37;7.10;99.90
72936;DHT22;61085;48.804;9.228;2023-02-15T18:00:13;7.00;99.90
72936;DHT22;61085;48.804;9.228;2023-02-15T18:02:57;7.00;99.90
72936;DHT22;61085;48.804;9.228;2023-02-15T18:05:41;7.00;99.90
72936;DHT22;61085;48.804;9.228;2023-02-15T18:08:27;6.90;99.90
72936;DHT22;61085;48.804;9.228;2023-02-15T18:11:11;6.90;99.90
72936;DHT22;61085;48.804;9.228;2023-02-15T18:13:56;6.80;99.90
72936;DHT22;61085;48.804;9.228;2023-02-15T18:16:28;6.80;99.90
72936;DHT22;61085;48.804;9.228;2023-02-15T18:18:55;6.70;99.90
72936;DHT22;61085;48.804;9.228;2023-02-15T18:21:22;6.70;99.90
72936;DHT22;61085;48.804;9.228;2023-02-15T18:23:49;6.60;99.90
72936;DHT22;61085;48.804;9.228;2023-02-15T18:26:20;6.50;99.90
72936;DHT22;61085;48.804;9.228;2023-02-15T18:28:47;6.50;99.90
72936;DHT22;61085;48.804;9.228;2023-02-15T18:31:13;6.40;99.90
72936;DHT22;61085;48.804;9.228;2023-02-15T18:33:43;6.30;99.90
72936;DHT22;61085;48.804;9.228;2023-02-15T18:36:16;6.20;99.90
72936;DHT22;61085;48.804;9.228;2023-02-15T18:38:42;6.20;99.90
72936;DHT22;61085;48.804;9.228;2023-02-15T18:41:17;6.10;99.90
72936;DHT22;61085;48.804;9.228;2023-02-15T18:43:44;6.00;99.90
72936;DHT22;61085;48.804;9.228;2023-02-15T18:46:10;6.30;99.90
72936;DHT22;61085;48.804;9.228;2023-02-15T18:48:36;6.00;99.90
72936;DHT22;61085;48.804;9.228;2023-02-15T18:51:02;6.00;99.90
72936;DHT22;61085;48.804;9.228;2023-02-15T18:53:27;6.00;99.90
72936;DHT22;61085;48.804;9.228;2023-02-15T18:55:53;5.90;99.90
72936;DHT22;61085;48.804;9.228;2023-02-15T18:58:21;5.90;99.90
72936;DHT22;61085;48.804;9.228;2023-02-15T19:00:48;6.00;99.90
72936;DHT22;61085;48.804;9.228;2023-02-15T19:03:15;5.90;99.90
72936;DHT22;61085;48.804;9.228;2023-02-15T19:05:44;5.90;99.90
72936;DHT22;61085;48.804;9.228;2023-02-15T19:08:18;5.80;99.90
72936;DHT22;61085;48.804;9.228;2023-02-15T19:10:46;6.00;99.90
72936;DHT22;61085;48.804;9.228;2023-02-15T19:13:12;5.70;99.90
72936;DHT22;61085;48.804;9.228;2023-02-15T19:15:39;5.60;99.90
72936;DHT22;61085;48.804;9.228;2023-02-15T19:18:05;5.50;99.90
72936;DHT22;61085;48.804;9.228;2023-02-15T19:20:35;5.50;99.90
72936;DHT22;61085;48.804;9.228;2023-02-15T19:23:01;5.50;99.90
72936;DHT22;61085;48.804;9.228;2023-02-15T19:25:29;5.50;99.90
72936;DHT22;61085;48.804;9.228;2023-02-15T19:27:56;5.40;99.90
72936;DHT22;61085;48.804;9.228;2023-02-15T19:30:25;5.30;99.90
72936;DHT22;61085;48.804;9.228;2023-02-15T19:32:53;5.20;99.90
72936;DHT22;61085;48.804;9.228;2023-02-15T19:35:21;5.20;99.90
72936;DHT22;61085;48.804;9.228;2023-02-15T19:37:52;5.30;99.90
72936;DHT22;61085;48.804;9.228;2023-02-15T19:40:29;5.20;99.90
72936;DHT22;61085;48.804;9.228;2023-02-15T19:42:56;5.20;99.90
72936;DHT22;61085;48.804;9.228;2023-02-15T19:45:25;5.10;99.90
72936;DHT22;61085;48.804;9.228;2023-02-15T19:47:51;5.20;99.90
72936;DHT22;61085;48.804;9.228;2023-02-15T19:50:21;5.20;99.90
72936;DHT22;61085;48.804;9.228;2023-02-15T19:52:48;5.60;99.90
72936;DHT22;61085;48.804;9.228;2023-02-15T19:55:24;5.20;99.90
72936;DHT22;61085;48.804;9.228;2023-02-15T19:57:51;5.20;99.90
72936;DHT22;61085;48.804;9.228;2023-02-15T20:00:23;5.10;99.90
72936;DHT22;61085;48.804;9.228;2023-02-15T20:02:50;5.10;99.90
72936;DHT22;61085;48.804;9.228;2023-02-15T20:05:16;5.10;99.90
72936;DHT22;61085;48.804;9.228;2023-02-15T20:07:44;5.10;99.90
72936;DHT22;61085;48.804;9.228;2023-02-15T20:10:16;5.10;99.90
72936;DHT22;61085;48.804;9.228;2023-02-15T20:12:42;5.10;99.90
72936;DHT22;61085;48.804;9.228;2023-02-15T20:15:28;5.00;99.90